sensor_id;sensor_type;location;lat;lon;timestamp;pressure;altitude;pressure_sealevel;temperature;humidity
25130;BME280;13308;50.860;13.664;2023-02-18T07:10:08;96810.59;;;8.32;100.00
25130;BME280;13308;50.860;13.664;2023-02-18T07:12:34;96821.53;;;8.40;100.00
25130;BME280;13308;50.860;13.664;2023-02-18T07:14:59;96818.00;;;8.39;100.00
25130;BME280;13308;50.860;13.664;2023-02-18T07:17:24;96808.59;;;8.37;100.00
25130;BME280;13308;50.860;13.664;2023-02-18T07:19:50;96817.94;;;8.46;100.00
25130;BME280;13308;50.860;13.664;2023-02-18T07:22:15;96809.94;;;8.65;100.00
25130;BME280;13308;50.860;13.664;2023-02-18T07:24:41;96798.22;;;8.58;100.00
25130;BME280;13308;50.860;13.664;2023-02-18T07:27:06;96797.44;;;8.57;100.00
25130;BME280;13308;50.860;13.664;2023-02-18T07:29:31;96802.88;;;8.64;100.00
25130;BME280;13308;50.860;13.664;2023-02-18T07:31:57;96798.94;;;8.65;100.00
25130;BME280;13308;50.860;13.664;2023-02-18T07:34:22;96796.13;;;8.72;100.00
25130;BME280;13308;50.860;13.664;2023-02-18T07:36:47;96794.56;;;8.71;100.00
25130;BME280;13308;50.860;13.664;2023-02-18T07:39:13;96788.66;;;8.73;100.00
25130;BME280;13308;50.860;13.664;2023-02-18T07:41:38;96771.34;;;8.76;100.00
25130;BME280;13308;50.860;13.664;2023-02-18T07:44:12;96774.44;;;8.81;100.00
25130;BME280;13308;50.860;13.664;2023-02-18T07:46:39;96769.59;;;8.92;100.00
25130;BME280;13308;50.860;13.664;2023-02-18T07:49:05;96769.59;;;8.96;100.00
25130;BME280;13308;50.860;13.664;2023-02-18T07:51:30;96781.28;;;9.03;100.00
25130;BME280;13308;50.860;13.664;2023-02-18T07:53:56;96768.28;;;9.07;100.00
25130;BME280;13308;50.860;13.664;2023-02-18T07:56:21;96757.63;;;9.09;100.00
25130;BME280;13308;50.860;13.664;2023-02-18T07:58:46;96773.59;;;9.21;100.00
25130;BME280;13308;50.860;13.664;2023-02-18T08:01:13;96776.34;;;9.21;100.00
25130;BME280;13308;50.860;13.664;2023-02-18T08:03:39;96766.00;;;9.32;100.00
25130;BME280;13308;50.860;13.664;2023-02-18T08:06:06;96761.16;;;9.43;100.00
25130;BME280;13308;50.860;13.664;2023-02-18T08:08:32;96761.53;;;9.45;100.00
25130;BME280;13308;50.860;13.664;2023-02-18T08:11:01;96761.88;;;9.51;100.00
25130;BME280;13308;50.860;13.664;2023-02-18T08:13:31;96767.69;;;9.56;100.00
25130;BME280;13308;50.860;13.664;2023-02-18T08:15:57;96763.81;;;9.50;100.00
25130;BME280;13308;50.860;13.664;2023-02-18T08:18:24;96764.13;;;9.59;100.00
25130;BME280;13308;50.860;13.664;2023-02-18T08:20:51;96760.53;;;9.62;100.00
25130;BME280;13308;50.860;13.664;2023-02-18T08:23:20;96748.25;;;9.70;100.00
25130;BME280;13308;50.860;13.664;2023-02-18T08:25:48;96733.16;;;9.78;100.00
25130;BME280;13308;50.860;13.664;2023-02-18T08:28:14;96738.63;;;9.82;100.00
25130;BME280;13308;50.860;13.664;2023-02-18T08:30:44;96733.91;;;9.82;100.00
25130;BME280;13308;50.860;13.664;2023-02-18T08:33:10;96730.88;;;9.73;100.00
25130;BME280;13308;50.860;13.664;2023-02-18T08:35:35;96737.22;;;9.70;100.00
25130;BME280;13308;50.860;13.664;2023-02-18T08:38:00;96725.25;;;9.80;100.00
25130;BME280;13308;50.860;13.664;2023-02-18T08:40:26;96722.09;;;9.82;100.00
25130;BME280;13308;50.860;13.664;2023-02-18T08:42:51;96719.66;;;9.87;100.00
25130;BME280;13308;50.860;13.664;2023-02-18T08:45:16;96709.00;;;9.89;100.00
25130;BME280;13308;50.860;13.664;2023-02-18T08:47:41;96702.19;;;9.97;100.00
25130;BME280;13308;50.860;13.664;2023-02-18T08:50:07;96699.72;;;10.06;100.00
25130;BME280;13308;50.860;13.664;2023-02-18T08:52:32;96700.69;;;10.19;100.00
25130;BME280;13308;50.860;13.664;2023-02-18T08:54:58;96709.56;;;10.30;100.00
25130;BME280;13308;50.860;13.664;2023-02-18T08:57:23;96707.41;;;10.41;100.00
25130;BME280;13308;50.860;13.664;2023-02-18T08:59:48;96697.47;;;10.47;100.00
25130;BME280;13308;50.860;13.664;2023-02-18T09:02:14;96705.91;;;10.60;100.00
25130;BME280;13308;50.860;13.664;2023-02-18T09:04:39;96689.03;;;10.77;100.00
25130;BME280;13308;50.860;13.664;2023-02-18T09:07:05;96694.66;;;10.70;100.00
25130;BME280;13308;50.860;13.664;2023-02-18T09:09:30;96703.31;;;10.72;100.00
25130;BME280;13308;50.860;13.664;2023-02-18T09:11:56;96696.94;;;10.75;100.00
25130;BME280;13308;50.860;13.664;2023-02-18T09:14:21;96685.00;;;10.82;100.00
25130;BME280;13308;50.860;13.664;2023-02-18T09:16:46;96688.97;;;10.81;100.00
25130;BME280;13308;50.860;13.664;2023-02-18T09:19:12;96681.75;;;10.87;100.00
25130;BME280;13308;50.860;13.664;2023-02-18T09:21:37;96676.84;;;10.94;100.00
25130;BME280;13308;50.860;13.664;2023-02-18T09:24:02;96677.72;;;10.91;100.00
25130;BME280;13308;50.860;13.664;2023-02-18T09:26:28;96678.63;;;10.85;100.00
25130;BME280;13308;50.860;13.664;2023-02-18T09:28:54;96685.69;;;10.86;100.00
25130;BME280;13308;50.860;13.664;2023-02-18T09:31:22;96685.91;;;10.75;100.00
25130;BME280;13308;50.860;13.664;2023-02-18T09:33:54;96680.53;;;10.68;100.00
25130;BME280;13308;50.860;13.664;2023-02-18T09:36:20;96671.97;;;10.63;100.00
25130;BME280;13308;50.860;13.664;2023-02-18T09:38:46;96668.16;;;10.57;100.00
25130;BME280;13308;50.860;13.664;2023-02-18T09:41:38;96677.66;;;10.52;100.00
25130;BME280;13308;50.860;13.664;2023-02-18T09:44:27;96664.25;;;10.54;100.00
25130;BME280;13308;50.860;13.664;2023-02-18T09:47:04;96658.06;;;10.47;100.00
25130;BME280;13308;50.860;13.664;2023-02-18T09:49:34;96652.63;;;10.43;100.00
25130;BME280;13308;50.860;13.664;2023-02-18T09:52:34;96666.88;;;10.38;100.00
25130;BME280;13308;50.860;13.664;2023-02-18T09:55:21;96646.53;;;10.32;100.00
25130;BME280;13308;50.860;13.664;2023-02-18T09:57:55;96644.72;;;10.22;100.00
25130;BME280;13308;50.860;13.664;2023-02-18T10:00:35;96638.56;;;10.15;100.00
25130;BME280;13308;50.860;13.664;2023-02-18T10:03:04;96639.69;;;10.17;100.00
25130;BME280;13308;50.860;13.664;2023-02-18T10:05:30;96634.13;;;10.21;100.00
25130;BME280;13308;50.860;13.664;2023-02-18T10:08:03;96632.16;;;10.21;100.00
25130;BME280;13308;50.860;13.664;2023-02-18T10:10:42;96621.50;;;10.23;100.00
25130;BME280;13308;50.860;13.664;2023-02-18T10:13:12;96623.25;;;10.33;100.00
25130;BME280;13308;50.860;13.664;2023-02-18T10:15:40;96622.31;;;10.43;100.00
25130;BME280;13308;50.860;13.664;2023-02-18T10:18:15;96613.31;;;10.39;100.00
25130;BME280;13308;50.860;13.664;2023-02-18T10:20:42;96614.16;;;10.36;100.00
25130;BME280;13308;50.860;13.664;2023-02-18T10:23:08;96609.97;;;10.28;100.00
25130;BME280;13308;50.860;13.664;2023-02-18T10:25:37;96604.09;;;10.26;100.00
25130;BME280;13308;50.860;13.664;2023-02-18T10:28:07;96606.50;;;10.24;100.00
25130;BME280;13308;50.860;13.664;2023-02-18T10:30:41;96597.75;;;10.29;100.00
25130;BME280;13308;50.860;13.664;2023-02-18T10:36:05;96583.91;;;10.52;100.00
25130;BME280;13308;50.860;13.664;2023-02-18T10:41:41;96581.53;;;10.54;100.00
25130;BME280;13308;50.860;13.664;2023-02-18T10:44:36;96573.59;;;10.56;100.00
25130;BME280;13308;50.860;13.664;2023-02-18T10:47:29;96591.75;;;10.54;100.00
25130;BME280;13308;50.860;13.664;2023-02-18T10:50:08;96584.06;;;10.65;100.00
25130;BME280;13308;50.860;13.664;2023-02-18T10:52:40;96565.41;;;10.72;100.00
25130;BME280;13308;50.860;13.664;2023-02-18T10:55:09;96562.72;;;10.69;100.00
25130;BME280;13308;50.860;13.664;2023-02-18T10:57:46;96559.03;;;10.75;100.00
25130;BME280;13308;50.860;13.664;2023-02-18T11:00:20;96541.47;;;10.85;100.00
25130;BME280;13308;50.860;13.664;2023-02-18T11:03:26;96547.69;;;10.89;100.00
25130;BME280;13308;50.860;13.664;2023-02-18T11:06:02;96539.75;;;10.91;100.00
25130;BME280;13308;50.860;13.664;2023-02-18T11:08:42;96512.88;;;10.95;100.00
25130;BME280;13308;50.860;13.664;2023-02-18T11:11:16;96528.56;;;10.98;100.00
25130;BME280;13308;50.860;13.664;2023-02-18T11:13:51;96523.34;;;11.04;100.00
25130;BME280;13308;50.860;13.664;2023-02-18T11:16:20;96526.69;;;11.11;100.00
25130;BME280;13308;50.860;13.664;2023-02-18T11:18:46;96516.34;;;11.15;100.00
25130;BME280;13308;50.860;13.664;2023-02-18T11:23:49;96495.66;;;11.23;100.00
25130;BME280;13308;50.860;13.664;2023-02-18T11:26:16;96495.47;;;11.30;100.00
25130;BME280;13308;50.860;13.664;2023-02-18T11:28:48;96483.59;;;11.33;100.00
25130;BME280;13308;50.860;13.664;2023-02-18T11:31:21;96499.97;;;11.40;100.00
25130;BME280;13308;50.860;13.664;2023-02-18T11:33:50;96491.53;;;11.47;100.00
25130;BME280;13308;50.860;13.664;2023-02-18T11:36:30;96486.34;;;11.33;100.00
25130;BME280;13308;50.860;13.664;2023-02-18T11:39:03;96496.19;;;11.34;100.00
25130;BME280;13308;50.860;13.664;2023-02-18T11:44:04;96484.19;;;11.25;100.00
25130;BME280;13308;50.860;13.664;2023-02-18T11:46:30;96477.38;;;11.29;100.00
25130;BME280;13308;50.860;13.664;2023-02-18T11:49:10;96476.16;;;11.30;100.00
25130;BME280;13308;50.860;13.664;2023-02-18T11:51:44;96471.19;;;11.25;100.00
25130;BME280;13308;50.860;13.664;2023-02-18T11:57:05;96464.63;;;11.19;100.00
25130;BME280;13308;50.860;13.664;2023-02-18T11:59:37;96470.47;;;11.21;100.00
25130;BME280;13308;50.860;13.664;2023-02-18T12:04:44;96453.22;;;11.17;100.00
25130;BME280;13308;50.860;13.664;2023-02-18T12:07:29;96463.03;;;11.18;100.00
25130;BME280;13308;50.860;13.664;2023-02-18T12:10:04;96457.16;;;11.00;100.00
25130;BME280;13308;50.860;13.664;2023-02-18T12:12:47;96437.00;;;11.03;100.00
25130;BME280;13308;50.860;13.664;2023-02-18T12:15:24;96447.78;;;10.98;100.00
25130;BME280;13308;50.860;13.664;2023-02-18T12:23:46;96441.94;;;10.60;100.00
25130;BME280;13308;50.860;13.664;2023-02-18T12:26:35;96456.72;;;10.50;100.00
25130;BME280;13308;50.860;13.664;2023-02-18T12:29:28;96443.59;;;10.38;100.00
25130;BME280;13308;50.860;13.664;2023-02-18T12:32:07;96451.72;;;10.45;100.00
25130;BME280;13308;50.860;13.664;2023-02-18T12:37:51;96423.50;;;10.38;100.00
25130;BME280;13308;50.860;13.664;2023-02-18T12:54:02;96450.66;;;10.20;100.00
25130;BME280;13308;50.860;13.664;2023-02-18T12:56:40;96447.28;;;10.12;100.00
25130;BME280;13308;50.860;13.664;2023-02-18T13:07:30;96462.78;;;10.06;100.00
25130;BME280;13308;50.860;13.664;2023-02-18T13:13:04;96449.91;;;10.19;100.00
25130;BME280;13308;50.860;13.664;2023-02-18T13:15:35;96459.38;;;10.18;100.00
25130;BME280;13308;50.860;13.664;2023-02-18T13:18:04;96462.97;;;10.15;100.00
25130;BME280;13308;50.860;13.664;2023-02-18T13:20:54;96458.81;;;10.07;100.00
25130;BME280;13308;50.860;13.664;2023-02-18T13:23:22;96439.44;;;10.11;99.63
25130;BME280;13308;50.860;13.664;2023-02-18T13:25:54;96432.16;;;10.20;99.76
25130;BME280;13308;50.860;13.664;2023-02-18T13:28:43;96418.38;;;10.20;99.44
25130;BME280;13308;50.860;13.664;2023-02-18T13:31:18;96417.09;;;10.25;97.48
25130;BME280;13308;50.860;13.664;2023-02-18T13:34:03;96439.44;;;10.30;97.26
25130;BME280;13308;50.860;13.664;2023-02-18T13:37:04;96438.22;;;10.31;96.66
25130;BME280;13308;50.860;13.664;2023-02-18T13:39:31;96444.88;;;10.34;94.89
25130;BME280;13308;50.860;13.664;2023-02-18T13:47:45;96447.75;;;9.88;100.00
25130;BME280;13308;50.860;13.664;2023-02-18T13:50:26;96450.13;;;9.66;100.00
25130;BME280;13308;50.860;13.664;2023-02-18T13:53:10;96437.69;;;9.58;100.00
25130;BME280;13308;50.860;13.664;2023-02-18T13:55:56;96447.97;;;9.54;100.00
25130;BME280;13308;50.860;13.664;2023-02-18T13:58:40;96446.28;;;9.60;100.00
25130;BME280;13308;50.860;13.664;2023-02-18T14:06:29;96445.97;;;9.35;100.00
25130;BME280;13308;50.860;13.664;2023-02-18T14:11:44;96449.13;;;9.34;100.00
25130;BME280;13308;50.860;13.664;2023-02-18T14:27:29;96436.22;;;9.08;100.00
25130;BME280;13308;50.860;13.664;2023-02-18T14:30:02;96430.03;;;9.00;100.00
25130;BME280;13308;50.860;13.664;2023-02-18T14:32:28;96426.19;;;8.94;100.00
25130;BME280;13308;50.860;13.664;2023-02-18T14:35:07;96447.13;;;8.88;100.00
25130;BME280;13308;50.860;13.664;2023-02-18T14:37:49;96460.59;;;8.79;100.00
25130;BME280;13308;50.860;13.664;2023-02-18T14:40:51;96445.34;;;8.75;100.00
25130;BME280;13308;50.860;13.664;2023-02-18T14:43:53;96433.56;;;8.74;100.00
25130;BME280;13308;50.860;13.664;2023-02-18T14:49:34;96431.31;;;8.69;100.00
25130;BME280;13308;50.860;13.664;2023-02-18T14:52:03;96437.56;;;8.70;100.00
25130;BME280;13308;50.860;13.664;2023-02-18T14:54:30;96463.22;;;8.63;100.00
25130;BME280;13308;50.860;13.664;2023-02-18T14:56:59;96469.16;;;8.58;100.00
25130;BME280;13308;50.860;13.664;2023-02-18T14:59:27;96454.63;;;8.58;100.00
25130;BME280;13308;50.860;13.664;2023-02-18T15:01:55;96447.28;;;8.52;100.00
25130;BME280;13308;50.860;13.664;2023-02-18T15:04:23;96463.38;;;8.49;100.00
25130;BME280;13308;50.860;13.664;2023-02-18T15:07:03;96468.78;;;8.56;100.00
25130;BME280;13308;50.860;13.664;2023-02-18T15:09:30;96470.81;;;8.52;100.00
25130;BME280;13308;50.860;13.664;2023-02-18T15:12:03;96462.56;;;8.52;100.00
25130;BME280;13308;50.860;13.664;2023-02-18T15:14:33;96494.00;;;8.52;100.00
25130;BME280;13308;50.860;13.664;2023-02-18T15:17:00;96475.22;;;8.47;100.00
25130;BME280;13308;50.860;13.664;2023-02-18T15:19:29;96472.38;;;8.53;100.00
25130;BME280;13308;50.860;13.664;2023-02-18T15:21:58;96466.13;;;8.49;100.00
25130;BME280;13308;50.860;13.664;2023-02-18T15:24:26;96480.38;;;8.41;100.00
25130;BME280;13308;50.860;13.664;2023-02-18T15:26:58;96485.09;;;8.41;100.00
25130;BME280;13308;50.860;13.664;2023-02-18T15:29:25;96477.22;;;8.43;100.00
25130;BME280;13308;50.860;13.664;2023-02-18T15:31:53;96474.03;;;8.48;100.00
25130;BME280;13308;50.860;13.664;2023-02-18T15:37:01;96482.50;;;8.60;100.00
25130;BME280;13308;50.860;13.664;2023-02-18T15:39:28;96498.94;;;8.63;100.00
25130;BME280;13308;50.860;13.664;2023-02-18T15:41:56;96491.06;;;8.65;100.00
25130;BME280;13308;50.860;13.664;2023-02-18T15:44:28;96487.16;;;8.63;100.00
25130;BME280;13308;50.860;13.664;2023-02-18T15:47:00;96495.00;;;8.64;100.00
25130;BME280;13308;50.860;13.664;2023-02-18T15:49:26;96501.59;;;8.70;100.00
25130;BME280;13308;50.860;13.664;2023-02-18T15:51:56;96485.81;;;8.74;100.00
25130;BME280;13308;50.860;13.664;2023-02-18T15:54:22;96485.22;;;8.86;100.00
25130;BME280;13308;50.860;13.664;2023-02-18T15:56:50;96503.66;;;8.89;100.00
25130;BME280;13308;50.860;13.664;2023-02-18T15:59:37;96510.38;;;8.88;100.00
25130;BME280;13308;50.860;13.664;2023-02-18T16:04:36;96528.13;;;9.10;100.00
25130;BME280;13308;50.860;13.664;2023-02-18T16:07:29;96519.03;;;9.13;100.00
25130;BME280;13308;50.860;13.664;2023-02-18T16:12:36;96514.72;;;9.12;100.00
25130;BME280;13308;50.860;13.664;2023-02-18T16:15:04;96517.13;;;9.10;100.00
25130;BME280;13308;50.860;13.664;2023-02-18T16:17:30;96522.56;;;9.14;100.00
25130;BME280;13308;50.860;13.664;2023-02-18T16:19:59;96517.59;;;9.05;100.00
25130;BME280;13308;50.860;13.664;2023-02-18T16:22:34;96520.69;;;9.07;100.00
25130;BME280;13308;50.860;13.664;2023-02-18T16:27:46;96530.66;;;8.98;100.00
25130;BME280;13308;50.860;13.664;2023-02-18T16:30:26;96536.47;;;9.03;100.00
25130;BME280;13308;50.860;13.664;2023-02-18T16:32:53;96533.81;;;8.96;100.00
25130;BME280;13308;50.860;13.664;2023-02-18T16:35:18;96535.88;;;8.89;100.00
25130;BME280;13308;50.860;13.664;2023-02-18T16:37:45;96549.31;;;8.83;100.00
25130;BME280;13308;50.860;13.664;2023-02-18T16:40:31;96559.22;;;8.77;100.00
25130;BME280;13308;50.860;13.664;2023-02-18T16:43:08;96551.28;;;8.83;100.00
25130;BME280;13308;50.860;13.664;2023-02-18T16:45:37;96559.47;;;8.86;100.00
25130;BME280;13308;50.860;13.664;2023-02-18T16:48:04;96562.22;;;8.86;100.00
25130;BME280;13308;50.860;13.664;2023-02-18T16:50:31;96573.56;;;8.92;100.00
25130;BME280;13308;50.860;13.664;2023-02-18T16:52:57;96580.31;;;8.87;100.00
25130;BME280;13308;50.860;13.664;2023-02-18T16:55:28;96561.41;;;8.89;100.00
25130;BME280;13308;50.860;13.664;2023-02-18T16:57:54;96577.00;;;8.99;100.00
25130;BME280;13308;50.860;13.664;2023-02-18T17:00:20;96572.31;;;8.96;100.00
25130;BME280;13308;50.860;13.664;2023-02-18T17:02:48;96562.81;;;9.01;100.00
25130;BME280;13308;50.860;13.664;2023-02-18T17:05:22;96572.59;;;9.05;100.00
25130;BME280;13308;50.860;13.664;2023-02-18T17:07:48;96574.56;;;9.05;100.00
25130;BME280;13308;50.860;13.664;2023-02-18T17:10:14;96571.41;;;9.06;100.00
25130;BME280;13308;50.860;13.664;2023-02-18T17:12:40;96581.22;;;9.07;100.00
25130;BME280;13308;50.860;13.664;2023-02-18T17:15:14;96578.50;;;9.04;100.00
25130;BME280;13308;50.860;13.664;2023-02-18T17:17:42;96577.66;;;9.07;100.00
25130;BME280;13308;50.860;13.664;2023-02-18T17:20:08;96592.03;;;8.91;100.00
25130;BME280;13308;50.860;13.664;2023-02-18T17:22:35;96571.69;;;8.85;100.00
25130;BME280;13308;50.860;13.664;2023-02-18T17:25:00;96571.81;;;8.75;100.00
25130;BME280;13308;50.860;13.664;2023-02-18T17:27:25;96580.47;;;8.73;100.00
25130;BME280;13308;50.860;13.664;2023-02-18T17:29:51;96582.03;;;8.74;100.00
25130;BME280;13308;50.860;13.664;2023-02-18T17:32:16;96585.72;;;8.64;100.00
25130;BME280;13308;50.860;13.664;2023-02-18T17:34:42;96590.47;;;8.60;100.00
25130;BME280;13308;50.860;13.664;2023-02-18T17:37:11;96590.00;;;8.65;100.00
25130;BME280;13308;50.860;13.664;2023-02-18T17:39:37;96590.09;;;8.58;100.00
25130;BME280;13308;50.860;13.664;2023-02-18T17:42:02;96610.53;;;8.57;100.00
25130;BME280;13308;50.860;13.664;2023-02-18T17:44:28;96603.34;;;8.67;100.00
25130;BME280;13308;50.860;13.664;2023-02-18T17:46:53;96610.44;;;8.64;100.00
25130;BME280;13308;50.860;13.664;2023-02-18T17:49:19;96629.97;;;8.73;100.00
25130;BME280;13308;50.860;13.664;2023-02-18T17:51:46;96612.66;;;8.76;100.00
25130;BME280;13308;50.860;13.664;2023-02-18T17:54:16;96610.28;;;8.78;100.00
25130;BME280;13308;50.860;13.664;2023-02-18T17:56:41;96615.69;;;8.85;100.00
25130;BME280;13308;50.860;13.664;2023-02-18T17:59:07;96613.38;;;8.80;100.00
25130;BME280;13308;50.860;13.664;2023-02-18T18:01:32;96618.44;;;8.85;100.00
25130;BME280;13308;50.860;13.664;2023-02-18T18:03:58;96623.13;;;8.88;100.00
25130;BME280;13308;50.860;13.664;2023-02-18T18:06:23;96635.31;;;8.87;100.00
25130;BME280;13308;50.860;13.664;2023-02-18T18:08:48;96625.88;;;8.88;100.00
25130;BME280;13308;50.860;13.664;2023-02-18T18:11:22;96638.44;;;8.89;100.00
25130;BME280;13308;50.860;13.664;2023-02-18T18:13:48;96641.47;;;8.98;100.00
25130;BME280;13308;50.860;13.664;2023-02-18T18:16:15;96635.63;;;8.93;100.00
25130;BME280;13308;50.860;13.664;2023-02-18T18:18:41;96664.28;;;8.95;100.00
25130;BME280;13308;50.860;13.664;2023-02-18T18:21:22;96660.19;;;9.07;100.00
25130;BME280;13308;50.860;13.664;2023-02-18T18:23:48;96648.44;;;9.06;100.00
25130;BME280;13308;50.860;13.664;2023-02-18T18:26:14;96653.13;;;9.06;100.00
25130;BME280;13308;50.860;13.664;2023-02-18T18:28:39;96648.44;;;9.06;100.00
25130;BME280;13308;50.860;13.664;2023-02-18T18:31:04;96657.03;;;9.08;100.00
25130;BME280;13308;50.860;13.664;2023-02-18T18:33:32;96662.53;;;9.08;100.00
25130;BME280;13308;50.860;13.664;2023-02-18T18:35:58;96655.47;;;9.07;100.00
25130;BME280;13308;50.860;13.664;2023-02-18T18:38:26;96650.78;;;9.08;100.00
25130;BME280;13308;50.860;13.664;2023-02-18T18:40:52;96653.97;;;9.03;100.00
25130;BME280;13308;50.860;13.664;2023-02-18T18:43:26;96661.09;;;9.00;100.00
25130;BME280;13308;50.860;13.664;2023-02-18T18:45:52;96662.63;;;9.01;100.00
25130;BME280;13308;50.860;13.664;2023-02-18T18:48:18;96659.53;;;8.99;100.00
25130;BME280;13308;50.860;13.664;2023-02-18T18:50:45;96679.13;;;9.01;100.00
25130;BME280;13308;50.860;13.664;2023-02-18T18:55:42;96657.13;;;9.01;100.00
25130;BME280;13308;50.860;13.664;2023-02-18T18:58:08;96675.19;;;9.02;100.00
25130;BME280;13308;50.860;13.664;2023-02-18T19:00:41;96675.19;;;9.02;100.00
25130;BME280;13308;50.860;13.664;2023-02-18T19:03:10;96664.19;;;9.02;100.00
25130;BME280;13308;50.860;13.664;2023-02-18T19:05:40;96685.50;;;8.95;100.00
25130;BME280;13308;50.860;13.664;2023-02-18T19:08:08;96672.94;;;8.94;100.00
25130;BME280;13308;50.860;13.664;2023-02-18T19:10:42;96664.72;;;8.90;100.00
25130;BME280;13308;50.860;13.664;2023-02-18T19:15:37;96674.91;;;8.93;100.00
25130;BME280;13308;50.860;13.664;2023-02-18T19:18:03;96676.09;;;8.92;100.00
25130;BME280;13308;50.860;13.664;2023-02-18T19:20:31;96697.72;;;8.90;100.00
25130;BME280;13308;50.860;13.664;2023-02-18T19:22:56;96691.03;;;8.91;100.00
25130;BME280;13308;50.860;13.664;2023-02-18T19:25:23;96683.22;;;8.86;100.00
25130;BME280;13308;50.860;13.664;2023-02-18T19:27:49;96673.78;;;8.91;100.00
